Etusivu
METAR-TAF:

METAR-TAF

Lentoasemat :

Midland, Texas, Yhdysvallat

Leveyspiiri: 31-56-52N, Pituuspiiri: 102-12-31W, korkeus merenpinnasta: 875 m

Tämänhetkinen sää

Tämä raportti tehtiin 54 minuuttia sitten, kello 01.53 UTC
Tuuli 6 kn etelästä
Lämpötila 26°C
Kosteus 23%
Ilmanpaine 1004 hPa
Näkyvyys: 16.1 km
selkeää

METAR: KMAF 250153Z 19006KT 10SM CLR 26/03 A2966 RMK AO2 SLP000 T02560033

Aika: 21:47 (02:47 UTC)

Sääennuste

Tämä raportti tehtiin 42 minuuttia sitten, kello 02.05 UTC
Ennuste voimassa 25. päivästä klo 02 UTC - 25. päivään klo 24 UTC
Tuuli 10 kn kaakosta
Näkyvyys: 10 km
selkeää
Ajoittain
25. päivästä klo 12 UTC - 25. päivään klo 16 UTC
Hajonneita pilviä 2000 ft:n korkeudessa

TAF: KMAF 250205Z 2502/2524 14010KT P6SM SKC TEMPO 2512/2516 BKN020

Säähavainnot ja -ennusteet yli 4000 lentoasemalta (METAR- ja TAF-raportit).

Käytössä olevat sääasemat on merkitty karttaan keltaisilla ja punaisilla pisteillä.

Aseta hiiri pisteen päälle nähdäksesi sääaseman nimen.

Klikkaa sitten nähdäksesi säähavainnot ja -ennusteet.

Kartan vaihtaminen: klikkaa mustalla rastilla varustettuja vihreitä pisteitä, niin voit zoomata sisään; viivalla varustettua vihreää pistettä, niin voit zoomata ulos tai vihreitä nuolia, niin pääset viereisille kartoille.


METAR-TAF: